Latest Weather Observations for Bradshaw

IDD60801

Issued at 10:35 am CST Sunday 26 October 2014 (issued every 30 minutes, with the page automatically refreshed every 10 minutes)

About weather observations | Map of weather stations | Latest weather observations for NT | Other Formats
Station Details ID: 014954 Name: BRADSHAW Lat: -14.94 Lon: 130.81 Height: 75.0 m
Data from the previous 72 hours. | See also: Recent months at Bradshaw
Date/Time
CST
Temp
°C
App
Temp
°C
Dew
Point
Rel
Hum
%
Delta-T
°C
Wind Press
QNH
hPa
Press
MSL
hPa
Rain
since 9 am
mm
Dir
 
Spd
km/h
Gust
km/h
Spd
kts
Gust
kts
26/10:30am 33.3 35.0 18.6 41 9.6 W 7 13 4 7 1015.1 - 0.0
26/10:00am 32.6 34.5 19.8 46 8.5 NNW 9 22 5 12 1015.5 - 0.0
26/09:30am 32.1 33.3 20.7 51 7.6 NNW 15 19 8 10 1015.6 - 0.0
26/09:00am 31.3 33.9 22.0 57 6.3 NW 11 17 6 9 1015.7 1015.2 0.0
26/08:30am 29.7 32.2 22.4 65 5.0 NNW 13 20 7 11 1015.7 - 0.0
26/08:00am 29.0 31.5 22.5 68 4.4 NNW 13 20 7 11 1015.6 - 0.0
26/07:30am 27.7 30.1 22.2 72 3.7 N 13 19 7 10 1015.6 - 0.0
26/07:00am 26.4 30.1 22.3 78 2.8 NNW 6 11 3 6 1015.3 - 0.0
26/06:30am 25.4 28.4 21.9 81 2.3 N 9 9 5 5 1015.1 - 0.0
26/06:00am 25.3 28.4 21.4 79 2.6 NNE 7 9 4 5 1014.9 1014.3 0.0
26/05:30am 25.8 29.2 21.7 78 2.7 N 6 9 3 5 1014.5 - 0.0
26/05:00am 26.0 29.6 22.3 80 2.5 NNW 7 7 4 4 1014.2 - 0.0
26/04:30am 25.9 28.2 22.0 79 2.6 N 13 17 7 9 1013.7 - 0.0
26/04:00am 26.1 27.8 21.7 77 2.9 N 15 17 8 9 1013.4 - 0.0
26/03:30am 26.2 28.9 21.4 75 3.2 N 9 15 5 8 1013.4 - 0.0
26/03:00am 26.6 28.8 21.1 72 3.6 N 11 19 6 10 1013.3 1012.7 0.0
26/02:30am 26.6 28.6 20.0 67 4.3 NNW 9 15 5 8 1013.4 - 0.0
26/02:00am 26.6 28.8 19.7 66 4.5 NNW 7 9 4 5 1013.3 - 0.0
26/01:30am 26.5 29.2 18.6 62 5.1 SW 2 7 1 4 1013.4 - 0.0
26/01:00am 27.8 29.2 19.6 61 5.3 NNW 11 15 6 8 1013.4 - 0.0
26/12:30am 28.2 29.5 19.4 59 5.7 NNW 11 13 6 7 1013.3 - 0.0
26/12:00am 28.6 30.0 19.5 58 5.9 NNW 11 15 6 8 1013.6 1013.0 0.0
 
Date/Time
CST
Temp
°C
App
Temp
°C
Dew
Point
Rel
Hum
%
Delta-T
°C
Wind Press
QNH
hPa
Press
MSL
hPa
Rain
since 9 am
mm
Dir
 
Spd
km/h
Gust
km/h
Spd
kts
Gust
kts
25/11:30pm 29.0 30.8 19.6 57 6.1 NNW 9 15 5 8 1013.6 - 0.0
25/11:00pm 29.1 31.1 20.0 58 6.0 NNW 9 13 5 7 1013.6 - 0.0
25/10:30pm 29.5 32.0 19.8 56 6.4 NW 6 11 3 6 1013.6 - 0.0
25/10:00pm 30.0 31.8 20.3 56 6.4 NW 11 17 6 9 1013.4 - 0.0
25/09:30pm 30.4 32.5 19.4 51 7.2 NW 7 11 4 6 1013.2 - 0.0
25/09:00pm 31.2 32.6 17.9 45 8.5 WNW 7 11 4 6 1012.9 1012.3 0.0
25/08:30pm 28.8 27.3 5.0 22 12.3 NNE 2 13 1 7 1012.5 - 0.0
25/08:00pm 32.4 29.8 4.2 17 14.7 ENE 7 9 4 5 1012.1 - 0.0
25/07:30pm 34.2 31.4 2.9 14 16.2 ENE 7 11 4 6 1011.6 - 0.0
25/07:00pm 35.3 32.4 2.7 13 16.9 E 7 9 4 5 1011.3 - 0.0
25/06:30pm 36.6 32.4 1.4 11 18.0 ESE 13 19 7 10 1011.0 - 0.0
25/06:00pm 38.0 33.7 1.1 10 19.0 ENE 13 26 7 14 1010.6 1010.0 0.0
25/05:30pm 38.6 34.5 4.1 12 18.6 E 15 22 8 12 1010.4 - 0.0
25/05:00pm 39.2 35.1 4.6 12 18.9 E 15 26 8 14 1010.3 - 0.0
25/04:30pm 38.8 33.6 5.4 13 18.4 ENE 22 32 12 17 1010.5 - 0.0
25/04:00pm 38.8 35.8 7.5 15 17.8 SE 13 20 7 11 1010.6 - 0.0
25/03:30pm 38.9 36.1 8.5 16 17.5 E 13 20 7 11 1011.0 - 0.0
25/03:00pm 38.7 35.1 8.4 16 17.4 ESE 17 33 9 18 1011.3 1010.7 0.0
25/02:30pm 37.8 33.9 9.4 18 16.5 E 20 28 11 15 1011.9 - 0.0
25/02:00pm 37.6 34.8 10.0 19 16.2 ENE 15 22 8 12 1012.3 - 0.0
25/01:30pm 37.9 35.0 11.1 20 16.0 E 17 28 9 15 1013.0 - 0.0
25/01:00pm 38.4 36.2 12.2 21 15.9 NE 15 26 8 14 1013.5 - 0.0
25/12:30pm 37.6 36.4 12.9 23 15.1 NNE 11 20 6 11 1014.1 - 0.0
25/12:00pm 36.5 34.5 12.7 24 14.4 E 15 24 8 13 1014.8 1014.2 0.0
25/11:30am 35.4 33.1 13.0 26 13.6 NNE 17 26 9 14 1015.4 - 0.0
25/11:00am 34.5 33.4 14.4 30 12.4 E 13 20 7 11 1015.9 - 0.0
25/10:30am 33.7 34.8 17.0 37 10.7 N 7 15 4 8 1016.1 - 0.0
25/10:00am 33.3 34.8 19.7 44 9.0 ENE 11 20 6 11 1016.6 - 0.0
25/09:30am 32.0 35.0 21.2 52 7.3 WNW 7 17 4 9 1016.9 - 0.0
25/09:00am 30.9 33.1 21.1 56 6.6 NNW 11 19 6 10 1017.1 1016.6 0.0
25/08:30am 30.1 32.6 21.7 60 5.7 NNW 11 15 6 8 1017.2 - 0.0
25/08:00am 29.0 32.4 22.0 66 4.7 N 7 15 4 8 1017.0 - 0.0
25/07:30am 28.1 31.4 21.9 69 4.2 N 7 9 4 5 1016.8 - 0.0
25/07:00am 27.4 31.7 21.9 72 3.7 N 2 7 1 4 1016.4 - 0.0
25/06:30am 26.0 29.9 21.2 75 3.2 W 2 9 1 5 1015.9 - 0.0
25/06:00am 25.7 28.1 20.9 75 3.2 SW 9 11 5 6 1015.4 1014.9 0.0
25/05:30am 26.3 29.2 21.1 73 3.4 N 7 7 4 4 1015.0 - 0.0
25/05:00am 26.5 29.7 21.3 73 3.5 N 6 9 3 5 1014.7 - 0.0
25/04:30am 27.0 30.0 21.3 71 3.8 NNW 7 11 4 6 1014.3 - 0.0
25/04:00am 27.2 30.0 21.5 71 3.8 N 9 15 5 8 1013.8 - 0.0
25/03:30am 27.3 29.7 21.6 71 3.8 N 11 15 6 8 1013.6 - 0.0
25/03:00am 27.5 28.5 21.8 71 3.8 N 19 26 10 14 1013.4 1012.8 0.0
25/02:30am 27.7 28.3 21.3 68 4.3 N 20 30 11 16 1013.4 - 0.0
25/02:00am 28.3 28.3 20.1 61 5.4 N 20 28 11 15 1013.5 - 0.0
25/01:30am 28.9 28.9 19.8 58 6.0 N 19 24 10 13 1013.3 - 0.0
25/01:00am 29.6 30.5 19.3 54 6.7 N 13 22 7 12 1013.4 - 0.0
25/12:30am 29.9 32.0 19.3 53 6.9 NNW 7 11 4 6 1013.2 - 0.0
25/12:00am 30.3 31.2 19.3 51 7.2 NW 13 19 7 10 1012.6 1012.0 0.0
 
Date/Time
CST
Temp
°C
App
Temp
°C
Dew
Point
Rel
Hum
%
Delta-T
°C
Wind Press
QNH
hPa
Press
MSL
hPa
Rain
since 9 am
mm
Dir
 
Spd
km/h
Gust
km/h
Spd
kts
Gust
kts
24/11:30pm 30.7 32.6 19.7 52 7.2 NW 9 15 5 8 1012.9 - 0.0
24/11:00pm 31.2 32.0 19.9 51 7.5 NW 15 20 8 11 1012.7 - 0.0
24/10:30pm 31.7 32.6 19.3 47 8.1 NNW 13 17 7 9 1012.4 - 0.0
24/10:00pm 31.5 29.3 7.9 23 13.0 W 9 13 5 7 1012.0 - 0.0
24/09:30pm 32.6 30.7 6.7 20 14.1 E 6 7 3 4 1011.7 - 0.0
24/09:00pm 33.1 31.1 6.4 19 14.5 ENE 6 9 3 5 1011.4 1010.8 0.0
24/08:30pm 33.5 31.4 6.7 19 14.7 ENE 7 9 4 5 1011.1 - 0.0
24/08:00pm 34.6 32.5 6.8 18 15.3 E 7 9 4 5 1010.7 - 0.0
24/07:30pm 34.3 33.7 7.4 19 14.9 CALM 0 0 0 0 1010.5 - 0.0
24/07:00pm 35.8 34.0 7.0 17 16.0 E 6 7 3 4 1010.2 - 0.0
24/06:30pm 36.8 34.5 5.9 15 17.0 E 7 9 4 5 1009.9 - 0.0
24/06:00pm 38.0 35.4 5.9 14 17.8 E 9 15 5 8 1009.6 1009.0 0.0
24/05:30pm 38.2 35.8 7.0 15 17.5 ENE 9 19 5 10 1009.4 - 0.0
24/05:00pm 38.8 34.4 6.5 14 18.1 E 19 24 10 13 1009.5 - 0.0
24/04:30pm 38.9 34.3 5.5 13 18.4 ESE 19 28 10 15 1009.7 - 0.0
24/04:00pm 39.5 35.6 7.1 14 18.4 E 17 26 9 14 1009.9 - 0.0
24/03:30pm 38.6 35.1 7.4 15 17.7 SSE 15 26 8 14 1010.0 - 0.0
24/03:00pm 39.6 37.6 7.1 14 18.4 SSE 7 15 4 8 1010.2 1009.6 0.0
24/02:30pm 37.5 34.5 9.2 18 16.4 E 15 24 8 13 1010.6 - 0.0
24/02:00pm 36.7 33.3 9.3 19 15.8 E 17 28 9 15 1011.1 - 0.0
24/01:30pm 38.5 36.8 12.3 21 15.9 ESE 13 28 7 15 1011.5 - 0.0
24/01:00pm 38.2 34.6 12.0 21 15.9 ENE 22 35 12 19 1012.2 - 0.0
24/12:30pm 36.6 35.6 14.6 27 13.7 NNW 13 24 7 13 1012.8 - 0.0
24/12:00pm 36.2 34.7 15.3 28 13.2 NNE 17 30 9 16 1013.4 1012.8 0.0
24/11:30am 36.5 36.6 16.6 30 12.8 N 11 20 6 11 1014.1 - 0.0
24/11:00am 36.3 36.4 17.4 32 12.2 N 13 24 7 13 1014.6 - 0.0
24/10:30am 34.2 34.7 17.4 36 10.8 N 11 20 6 11 1015.0 - 0.0
24/10:00am 33.2 32.7 17.8 40 9.9 N 17 24 9 13 1015.4 - 0.0
24/09:30am 32.1 32.1 19.0 45 8.6 N 17 26 9 14 1015.6 - 0.0
24/09:00am 31.1 31.8 20.4 53 7.1 N 17 22 9 12 1015.7 1015.2 0.0
24/08:30am 30.0 31.3 21.7 61 5.6 N 17 24 9 13 1015.8 - 0.0
24/08:00am 28.6 30.3 22.3 68 4.3 N 17 26 9 14 1015.6 - 0.0
24/07:30am 28.1 31.3 22.3 70 3.9 N 9 15 5 8 1015.4 - 0.0
24/07:00am 27.0 30.2 22.4 76 3.1 ENE 9 11 5 6 1015.1 - 0.0
24/06:30am 25.7 29.0 21.8 79 2.6 ENE 7 9 4 5 1014.8 - 0.0
24/06:00am 25.6 28.7 21.5 78 2.7 SE 7 9 4 5 1014.2 1013.6 0.0
24/05:30am 25.9 28.9 22.0 79 2.6 N 9 15 5 8 1014.0 - 0.0
24/05:00am 26.3 29.8 22.2 78 2.8 N 7 11 4 6 1013.6 - 0.0
24/04:30am 26.3 28.9 21.9 77 2.9 NW 11 13 6 7 1013.4 - 0.0
24/04:00am 26.5 28.3 21.9 76 3.1 NNW 15 20 8 11 1013.0 - 0.0
24/03:30am 26.9 27.2 21.6 72 3.5 N 22 30 12 16 1012.8 - 0.0
24/03:00am 27.1 27.1 21.6 72 3.7 N 24 33 13 18 1012.4 1011.8 0.0
24/02:30am 27.6 29.3 21.6 70 4.0 N 15 22 8 12 1012.8 - 0.0
24/02:00am 27.8 30.2 21.6 69 4.2 NNE 11 15 6 8 1012.9 - 0.0
24/01:30am 27.0 29.4 20.8 69 4.1 E 9 13 5 7 1013.0 - 0.0
24/01:00am 26.6 29.9 20.0 67 4.3 S 2 6 1 3 1012.6 - 0.0
24/12:30am 27.1 29.2 19.4 62 5.0 W 7 9 4 5 1012.9 - 0.0
24/12:00am 28.4 30.7 21.4 66 4.7 NNW 11 13 6 7 1012.8 1012.2 0.0
 
Date/Time
CST
Temp
°C
App
Temp
°C
Dew
Point
Rel
Hum
%
Delta-T
°C
Wind Press
QNH
hPa
Press
MSL
hPa
Rain
since 9 am
mm
Dir
 
Spd
km/h
Gust
km/h
Spd
kts
Gust
kts
23/11:30pm 28.6 32.1 21.1 64 5.0 NNW 4 9 2 5 1013.3 - 0.0
23/11:00pm 28.9 31.0 20.9 62 5.3 NNW 11 15 6 8 1013.2 - 0.0
23/10:30pm 29.6 31.8 20.5 58 6.0 WNW 9 15 5 8 1013.2 - 0.0
23/10:00pm 30.4 32.2 20.3 54 6.7 NW 11 15 6 8 1012.9 - 0.0
23/09:30pm 30.4 30.2 13.7 36 10.1 W 7 9 4 5 1012.6 - 0.0
23/09:00pm 30.6 27.8 7.1 23 12.7 WSW 11 20 6 11 1012.1 1011.5 0.0
23/08:30pm 32.0 29.5 4.7 18 14.3 N 7 9 4 5 1011.5 - 0.0
23/08:00pm 32.6 30.6 4.4 17 14.8 NE 4 7 2 4 1011.1 - 0.0
23/07:30pm 34.3 33.0 4.0 15 15.9 CALM 0 4 0 2 1010.8 - 0.0
23/07:00pm 35.7 32.3 4.1 14 16.8 ENE 11 13 6 7 1010.5 - 0.0
23/06:30pm 36.8 33.2 4.9 14 17.3 E 13 19 7 10 1010.1 - 0.0
23/06:00pm 37.6 35.3 5.6 14 17.6 ENE 7 15 4 8 1009.8 1009.2 0.0
23/05:30pm 38.4 33.7 5.1 13 18.2 E 19 26 10 14 1009.7 - 0.0
23/05:00pm 39.0 35.0 6.7 14 18.1 SE 17 24 9 13 1009.4 - 0.0
23/04:30pm 39.0 35.2 5.6 13 18.5 NE 15 28 8 15 1009.5 - 0.0
23/04:00pm 39.7 36.3 6.1 13 18.8 ESE 13 26 7 14 1009.6 - 0.0
23/03:30pm 39.1 36.0 5.7 13 18.5 ESE 11 20 6 11 1010.0 - 0.0
23/03:00pm 38.5 34.8 6.3 14 18.0 SE 15 28 8 15 1010.3 1009.7 0.0
23/02:30pm 37.1 33.4 8.0 17 16.5 ENE 17 22 9 12 1010.6 - 0.0
23/02:00pm 37.4 34.7 9.1 18 16.4 ESE 13 26 7 14 1011.0 - 0.0
23/01:30pm 38.8 36.1 10.2 18 16.9 ESE 15 28 8 15 1011.7 - 0.0
23/01:00pm 38.7 36.2 10.9 19 16.6 ENE 15 28 8 15 1012.3 - 0.0
23/12:30pm 36.6 34.6 12.7 23 14.5 E 15 26 8 14 1012.9 - 0.0
23/12:00pm 36.6 35.0 15.1 27 13.5 NNE 17 24 9 13 1013.5 1012.9 0.0
23/11:30am 35.4 34.2 16.2 32 12.2 NNE 17 24 9 13 1014.2 - 0.0
23/11:00am 34.5 33.0 16.4 34 11.5 NNE 19 30 10 16 1014.6 - 0.0

Other Formats:

Comma delimited format used in spreadsheet applications
http://www.bom.gov.au/fwo/IDD60801/IDD60801.94130.axf

JavaScript Object Notation format (JSON) in row-major order
http://www.bom.gov.au/fwo/IDD60801/IDD60801.94130.json